Terminal Aerodrome Forecast
Issued by NWS

Home | Current Version | Previous Version | Text Only | Print | Product List | Glossary On
Versions: 1 2 3 4 5 6 7 8 9 10 11 12 13 14 15 16 17
000
FTUS41 KPBZ 181330 AAA
TAFZZV
TAF AMD
KZZV 181330Z 1814/1912 21006KT P6SM SCT011 SCT040 OVC050
      TEMPO 1814/1815 BKN012
     FM181500 24006KT P6SM SCT020
     FM181800 26010G20KT P6SM BKN040
     FM190200 21002KT P6SM SCT015=

USA.gov is the U.S. government's official web portal to all federal, state and local government web resources and services.